sensor_id;sensor_type;location;lat;lon;timestamp;pressure;altitude;pressure_sealevel;temperature;humidity
74329;BME280;62749;51.982;5.916;2024-02-26T00:00:47;76531.34;;;-147.22;69.19
74329;BME280;62749;51.982;5.916;2024-02-26T00:03:19;76525.28;;;-147.22;69.24
74329;BME280;62749;51.982;5.916;2024-02-26T00:05:48;76541.41;;;-147.22;69.32
74329;BME280;62749;51.982;5.916;2024-02-26T00:08:17;76555.53;;;-147.22;69.65
74329;BME280;62749;51.982;5.916;2024-02-26T00:10:47;76545.44;;;-147.22;70.00
74329;BME280;62749;51.982;5.916;2024-02-26T00:13:16;76535.38;;;-147.22;70.06
74329;BME280;62749;51.982;5.916;2024-02-26T00:15:46;76541.41;;;-147.22;69.66
74329;BME280;62749;51.982;5.916;2024-02-26T00:18:18;76539.41;;;-147.22;70.39
74329;BME280;62749;51.982;5.916;2024-02-26T00:20:48;76543.44;;;-147.22;70.21
74329;BME280;62749;51.982;5.916;2024-02-26T00:23:17;76561.56;;;-147.22;70.54
74329;BME280;62749;51.982;5.916;2024-02-26T00:25:47;76563.59;;;-147.22;70.74
74329;BME280;62749;51.982;5.916;2024-02-26T00:28:16;76573.66;;;-147.22;71.04
74329;BME280;62749;51.982;5.916;2024-02-26T00:30:46;76569.63;;;-147.22;71.21
74329;BME280;62749;51.982;5.916;2024-02-26T00:33:19;76573.66;;;-147.22;71.55
74329;BME280;62749;51.982;5.916;2024-02-26T00:35:49;76569.63;;;-147.22;71.31
74329;BME280;62749;51.982;5.916;2024-02-26T00:38:18;76555.53;;;-147.22;71.02
74329;BME280;62749;51.982;5.916;2024-02-26T00:40:48;76565.59;;;-147.22;70.78
74329;BME280;62749;51.982;5.916;2024-02-26T00:43:17;76565.59;;;-147.22;70.53
74329;BME280;62749;51.982;5.916;2024-02-26T00:45:47;76563.59;;;-147.22;70.74
74329;BME280;62749;51.982;5.916;2024-02-26T00:48:21;76541.41;;;-147.22;71.03
74329;BME280;62749;51.982;5.916;2024-02-26T00:50:52;76547.47;;;-147.22;70.63
74329;BME280;62749;51.982;5.916;2024-02-26T00:53:21;76553.50;;;-147.22;70.30
74329;BME280;62749;51.982;5.916;2024-02-26T00:55:51;76547.47;;;-147.22;70.23
74329;BME280;62749;51.982;5.916;2024-02-26T00:58:20;76533.34;;;-147.22;70.08
74329;BME280;62749;51.982;5.916;2024-02-26T01:00:50;76519.25;;;-147.22;69.83
74329;BME280;62749;51.982;5.916;2024-02-26T01:03:22;76525.28;;;-147.22;69.32
74329;BME280;62749;51.982;5.916;2024-02-26T01:05:51;76529.31;;;-147.22;68.91
74329;BME280;62749;51.982;5.916;2024-02-26T01:08:21;76523.28;;;-147.22;69.69
74329;BME280;62749;51.982;5.916;2024-02-26T01:10:50;76525.28;;;-147.22;68.69
74329;BME280;62749;51.982;5.916;2024-02-26T01:13:20;76519.25;;;-147.22;68.60
74329;BME280;62749;51.982;5.916;2024-02-26T01:15:49;76509.16;;;-147.22;67.95
74329;BME280;62749;51.982;5.916;2024-02-26T01:18:18;76505.13;;;-147.22;68.28
74329;BME280;62749;51.982;5.916;2024-02-26T01:20:51;76497.06;;;-147.22;68.29
74329;BME280;62749;51.982;5.916;2024-02-26T01:23:20;76487.00;;;-147.22;67.68
74329;BME280;62749;51.982;5.916;2024-02-26T01:25:50;76478.94;;;-147.22;67.64
74329;BME280;62749;51.982;5.916;2024-02-26T01:28:19;76478.94;;;-147.22;67.79
74329;BME280;62749;51.982;5.916;2024-02-26T01:30:49;76478.94;;;-147.22;67.63
74329;BME280;62749;51.982;5.916;2024-02-26T01:33:18;76478.94;;;-147.22;67.75
74329;BME280;62749;51.982;5.916;2024-02-26T01:35:48;76484.97;;;-147.22;68.10
74329;BME280;62749;51.982;5.916;2024-02-26T01:38:20;76489.00;;;-147.22;68.16
74329;BME280;62749;51.982;5.916;2024-02-26T01:40:49;76489.00;;;-147.22;68.30
74329;BME280;62749;51.982;5.916;2024-02-26T01:43:18;76503.13;;;-147.22;67.89
74329;BME280;62749;51.982;5.916;2024-02-26T01:45:48;76505.13;;;-147.22;68.50
74329;BME280;62749;51.982;5.916;2024-02-26T01:48:18;76511.19;;;-147.22;68.07
74329;BME280;62749;51.982;5.916;2024-02-26T01:50:47;76515.22;;;-147.22;68.05
74329;BME280;62749;51.982;5.916;2024-02-26T01:53:21;76517.22;;;-147.22;68.62
74329;BME280;62749;51.982;5.916;2024-02-26T01:55:51;76527.31;;;-147.22;68.16
74329;BME280;62749;51.982;5.916;2024-02-26T01:58:20;76533.34;;;-147.22;67.94
74329;BME280;62749;51.982;5.916;2024-02-26T02:00:50;76539.41;;;-147.22;67.67
74329;BME280;62749;51.982;5.916;2024-02-26T02:03:19;76537.38;;;-147.22;67.75
74329;BME280;62749;51.982;5.916;2024-02-26T02:05:49;76553.50;;;-147.22;68.04
74329;BME280;62749;51.982;5.916;2024-02-26T02:08:22;76553.50;;;-147.22;67.86
74329;BME280;62749;51.982;5.916;2024-02-26T02:10:52;76561.56;;;-147.22;68.34
74329;BME280;62749;51.982;5.916;2024-02-26T02:13:22;76565.59;;;-147.22;68.63
74329;BME280;62749;51.982;5.916;2024-02-26T02:15:51;76557.53;;;-147.22;68.97
74329;BME280;62749;51.982;5.916;2024-02-26T02:21:30;76583.75;;;-147.22;69.53
74329;BME280;62749;51.982;5.916;2024-02-26T02:24:00;76579.72;;;-147.22;69.24
74329;BME280;62749;51.982;5.916;2024-02-26T02:26:29;76597.88;;;-147.22;70.34
74329;BME280;62749;51.982;5.916;2024-02-26T02:29:00;76595.84;;;-147.22;69.88
74329;BME280;62749;51.982;5.916;2024-02-26T02:31:29;76593.84;;;-147.22;69.62
74329;BME280;62749;51.982;5.916;2024-02-26T02:33:59;76593.84;;;-147.22;69.85
74329;BME280;62749;51.982;5.916;2024-02-26T02:36:31;76591.81;;;-147.22;70.01
74329;BME280;62749;51.982;5.916;2024-02-26T02:39:01;76589.81;;;-147.22;70.10
74329;BME280;62749;51.982;5.916;2024-02-26T02:41:30;76607.94;;;-147.22;70.21
74329;BME280;62749;51.982;5.916;2024-02-26T02:44:00;76620.03;;;-147.22;70.64
74329;BME280;62749;51.982;5.916;2024-02-26T02:46:29;76614.00;;;-147.22;70.81
74329;BME280;62749;51.982;5.916;2024-02-26T02:49:00;76601.91;;;-147.22;70.75
74329;BME280;62749;51.982;5.916;2024-02-26T02:51:32;76607.94;;;-147.22;70.85
74329;BME280;62749;51.982;5.916;2024-02-26T02:54:08;76614.00;;;-147.22;70.98
74329;BME280;62749;51.982;5.916;2024-02-26T02:56:37;76626.09;;;-147.22;71.28
74329;BME280;62749;51.982;5.916;2024-02-26T02:59:07;76607.94;;;-147.22;71.86
74329;BME280;62749;51.982;5.916;2024-02-26T03:01:36;76601.91;;;-147.22;70.86
74329;BME280;62749;51.982;5.916;2024-02-26T03:04:06;76593.84;;;-147.22;71.06
74329;BME280;62749;51.982;5.916;2024-02-26T03:06:38;76603.91;;;-147.22;70.34
74329;BME280;62749;51.982;5.916;2024-02-26T03:09:07;76611.97;;;-147.22;70.47
74329;BME280;62749;51.982;5.916;2024-02-26T03:11:36;76616.00;;;-147.22;70.81
74329;BME280;62749;51.982;5.916;2024-02-26T03:14:06;76614.00;;;-147.22;70.88
74329;BME280;62749;51.982;5.916;2024-02-26T03:16:36;76597.88;;;-147.22;70.41
74329;BME280;62749;51.982;5.916;2024-02-26T03:19:05;76591.81;;;-147.22;69.89
74329;BME280;62749;51.982;5.916;2024-02-26T03:21:34;76597.88;;;-147.22;69.26
74329;BME280;62749;51.982;5.916;2024-02-26T03:24:07;76595.84;;;-147.22;68.94
74329;BME280;62749;51.982;5.916;2024-02-26T03:26:38;76603.91;;;-147.22;68.62
74329;BME280;62749;51.982;5.916;2024-02-26T03:29:07;76599.88;;;-147.22;68.62
74329;BME280;62749;51.982;5.916;2024-02-26T03:31:37;76601.91;;;-147.22;68.79
74329;BME280;62749;51.982;5.916;2024-02-26T03:34:06;76611.97;;;-147.22;68.63
74329;BME280;62749;51.982;5.916;2024-02-26T03:36:36;76607.94;;;-147.22;68.54
74329;BME280;62749;51.982;5.916;2024-02-26T03:39:08;76611.97;;;-147.22;68.79
74329;BME280;62749;51.982;5.916;2024-02-26T03:41:37;76616.00;;;-147.22;68.29
74329;BME280;62749;51.982;5.916;2024-02-26T03:44:06;76607.94;;;-147.22;68.30
74329;BME280;62749;51.982;5.916;2024-02-26T03:46:36;76597.88;;;-147.22;68.45
74329;BME280;62749;51.982;5.916;2024-02-26T03:49:05;76585.75;;;-147.22;68.32
74329;BME280;62749;51.982;5.916;2024-02-26T03:51:35;76573.66;;;-147.22;68.79
74329;BME280;62749;51.982;5.916;2024-02-26T03:54:04;76569.63;;;-147.22;68.94
74329;BME280;62749;51.982;5.916;2024-02-26T03:56:36;76567.63;;;-147.22;68.71
74329;BME280;62749;51.982;5.916;2024-02-26T03:59:05;76573.66;;;-147.22;68.58
74329;BME280;62749;51.982;5.916;2024-02-26T04:01:35;76585.75;;;-147.22;68.94
74329;BME280;62749;51.982;5.916;2024-02-26T04:04:05;76573.66;;;-147.22;69.57
74329;BME280;62749;51.982;5.916;2024-02-26T04:06:34;76587.78;;;-147.22;69.45
74329;BME280;62749;51.982;5.916;2024-02-26T04:09:03;76603.91;;;-147.22;70.08
74329;BME280;62749;51.982;5.916;2024-02-26T04:11:36;76620.03;;;-147.22;69.74
74329;BME280;62749;51.982;5.916;2024-02-26T04:14:05;76642.22;;;-147.22;70.28
74329;BME280;62749;51.982;5.916;2024-02-26T04:16:35;76634.16;;;-147.22;70.27
74329;BME280;62749;51.982;5.916;2024-02-26T04:19:05;76632.13;;;-147.22;70.44
74329;BME280;62749;51.982;5.916;2024-02-26T04:21:34;76648.25;;;-147.22;70.83
74329;BME280;62749;51.982;5.916;2024-02-26T04:24:04;76654.31;;;-147.22;70.91
74329;BME280;62749;51.982;5.916;2024-02-26T04:26:37;76662.38;;;-147.22;71.47
74329;BME280;62749;51.982;5.916;2024-02-26T04:29:06;76660.34;;;-147.22;71.61
74329;BME280;62749;51.982;5.916;2024-02-26T04:31:37;76654.31;;;-147.22;71.83
74329;BME280;62749;51.982;5.916;2024-02-26T04:34:06;76658.34;;;-147.22;72.04
74329;BME280;62749;51.982;5.916;2024-02-26T04:36:35;76670.44;;;-147.22;72.35
74329;BME280;62749;51.982;5.916;2024-02-26T04:39:05;76682.53;;;-147.22;72.23
74329;BME280;62749;51.982;5.916;2024-02-26T04:41:37;76666.41;;;-147.22;72.51
74329;BME280;62749;51.982;5.916;2024-02-26T04:44:06;76686.56;;;-147.22;72.31
74329;BME280;62749;51.982;5.916;2024-02-26T04:46:36;76694.63;;;-147.22;72.39
74329;BME280;62749;51.982;5.916;2024-02-26T04:49:05;76690.59;;;-147.22;72.65
74329;BME280;62749;51.982;5.916;2024-02-26T04:51:35;76698.66;;;-147.22;72.75
74329;BME280;62749;51.982;5.916;2024-02-26T04:54:04;76688.56;;;-147.22;72.99
74329;BME280;62749;51.982;5.916;2024-02-26T04:56:34;76692.59;;;-147.22;73.63
74329;BME280;62749;51.982;5.916;2024-02-26T04:59:06;76708.72;;;-147.22;73.68
74329;BME280;62749;51.982;5.916;2024-02-26T05:01:35;76720.84;;;-147.22;74.12
74329;BME280;62749;51.982;5.916;2024-02-26T05:04:05;76716.81;;;-147.22;74.37
74329;BME280;62749;51.982;5.916;2024-02-26T05:06:36;76726.88;;;-147.22;74.89
74329;BME280;62749;51.982;5.916;2024-02-26T05:09:08;76726.88;;;-147.22;74.59
74329;BME280;62749;51.982;5.916;2024-02-26T05:11:37;76722.84;;;-147.22;74.54
74329;BME280;62749;51.982;5.916;2024-02-26T05:14:09;76714.78;;;-147.22;74.67
74329;BME280;62749;51.982;5.916;2024-02-26T05:16:39;76722.84;;;-147.22;74.83
74329;BME280;62749;51.982;5.916;2024-02-26T05:19:08;76706.72;;;-147.22;75.51
74329;BME280;62749;51.982;5.916;2024-02-26T05:21:37;76706.72;;;-147.22;75.46
74329;BME280;62749;51.982;5.916;2024-02-26T05:24:07;76704.69;;;-147.22;75.85
74329;BME280;62749;51.982;5.916;2024-02-26T05:26:37;76706.72;;;-147.22;76.15
74329;BME280;62749;51.982;5.916;2024-02-26T05:29:09;76718.81;;;-147.22;76.77
74329;BME280;62749;51.982;5.916;2024-02-26T05:31:38;76730.91;;;-147.22;76.87
74329;BME280;62749;51.982;5.916;2024-02-26T05:34:08;76736.97;;;-147.22;76.88
74329;BME280;62749;51.982;5.916;2024-02-26T05:36:37;76736.97;;;-147.22;77.79
74329;BME280;62749;51.982;5.916;2024-02-26T05:39:07;76728.91;;;-147.22;77.39
74329;BME280;62749;51.982;5.916;2024-02-26T05:41:38;76732.94;;;-147.22;77.57
74329;BME280;62749;51.982;5.916;2024-02-26T05:44:12;76745.03;;;-147.22;77.66
74329;BME280;62749;51.982;5.916;2024-02-26T05:46:42;76759.13;;;-147.22;78.16
74329;BME280;62749;51.982;5.916;2024-02-26T05:49:11;76767.19;;;-147.22;78.29
74329;BME280;62749;51.982;5.916;2024-02-26T05:51:41;76753.09;;;-147.22;78.27
74329;BME280;62749;51.982;5.916;2024-02-26T05:54:10;76761.16;;;-147.22;78.58
74329;BME280;62749;51.982;5.916;2024-02-26T05:56:40;76747.03;;;-147.22;78.34
74329;BME280;62749;51.982;5.916;2024-02-26T05:59:12;76751.06;;;-147.22;77.96
74329;BME280;62749;51.982;5.916;2024-02-26T06:01:42;76763.16;;;-147.22;78.39
74329;BME280;62749;51.982;5.916;2024-02-26T06:04:11;76769.22;;;-147.22;78.33
74329;BME280;62749;51.982;5.916;2024-02-26T06:06:41;76771.22;;;-147.22;78.50
74329;BME280;62749;51.982;5.916;2024-02-26T06:09:10;76779.28;;;-147.22;78.91
74329;BME280;62749;51.982;5.916;2024-02-26T06:11:40;76767.19;;;-147.22;78.33
74329;BME280;62749;51.982;5.916;2024-02-26T06:14:16;76773.25;;;-147.22;78.42
74329;BME280;62749;51.982;5.916;2024-02-26T06:16:46;76773.25;;;-147.22;78.42
74329;BME280;62749;51.982;5.916;2024-02-26T06:19:16;76777.28;;;-147.22;78.11
74329;BME280;62749;51.982;5.916;2024-02-26T06:21:45;76783.31;;;-147.22;78.48
74329;BME280;62749;51.982;5.916;2024-02-26T06:24:14;76789.38;;;-147.22;77.55
74329;BME280;62749;51.982;5.916;2024-02-26T06:26:44;76789.38;;;-147.22;77.69
74329;BME280;62749;51.982;5.916;2024-02-26T06:29:16;76777.28;;;-147.22;77.83
74329;BME280;62749;51.982;5.916;2024-02-26T06:31:45;76787.34;;;-147.22;77.52
74329;BME280;62749;51.982;5.916;2024-02-26T06:34:17;76803.47;;;-147.22;77.54
74329;BME280;62749;51.982;5.916;2024-02-26T06:36:46;76801.47;;;-147.22;78.03
74329;BME280;62749;51.982;5.916;2024-02-26T06:39:16;76787.34;;;-147.22;78.03
74329;BME280;62749;51.982;5.916;2024-02-26T06:41:46;76789.38;;;-147.22;77.94
74329;BME280;62749;51.982;5.916;2024-02-26T06:44:18;76785.34;;;-147.22;78.29
74329;BME280;62749;51.982;5.916;2024-02-26T06:46:47;76777.28;;;-147.22;77.77
74329;BME280;62749;51.982;5.916;2024-02-26T06:49:17;76793.41;;;-147.22;78.09
74329;BME280;62749;51.982;5.916;2024-02-26T06:51:46;76819.63;;;-147.22;78.20
74329;BME280;62749;51.982;5.916;2024-02-26T06:54:15;76823.66;;;-147.22;78.72
74329;BME280;62749;51.982;5.916;2024-02-26T06:56:45;76813.56;;;-147.22;78.86
74329;BME280;62749;51.982;5.916;2024-02-26T06:59:14;76813.56;;;-147.22;78.47
74329;BME280;62749;51.982;5.916;2024-02-26T07:01:47;76829.69;;;-147.22;78.73
74329;BME280;62749;51.982;5.916;2024-02-26T07:04:17;76831.72;;;-147.22;78.89
74329;BME280;62749;51.982;5.916;2024-02-26T07:06:47;76827.69;;;-147.22;78.92
74329;BME280;62749;51.982;5.916;2024-02-26T07:09:16;76825.66;;;-147.22;79.18
74329;BME280;62749;51.982;5.916;2024-02-26T07:11:46;76827.69;;;-147.22;79.01
74329;BME280;62749;51.982;5.916;2024-02-26T07:14:15;76817.59;;;-147.22;79.77
74329;BME280;62749;51.982;5.916;2024-02-26T07:16:47;76843.81;;;-147.22;79.11
74329;BME280;62749;51.982;5.916;2024-02-26T07:19:17;76831.72;;;-147.22;79.70
74329;BME280;62749;51.982;5.916;2024-02-26T07:21:46;76837.75;;;-147.22;80.52
74329;BME280;62749;51.982;5.916;2024-02-26T07:24:15;76839.78;;;-147.22;80.57
74329;BME280;62749;51.982;5.916;2024-02-26T07:26:45;76833.72;;;-147.22;81.00
74329;BME280;62749;51.982;5.916;2024-02-26T07:29:14;76821.63;;;-147.22;81.11
74329;BME280;62749;51.982;5.916;2024-02-26T07:31:44;76827.69;;;-147.22;80.76
74329;BME280;62749;51.982;5.916;2024-02-26T07:34:16;76845.81;;;-147.22;80.92
74329;BME280;62749;51.982;5.916;2024-02-26T07:36:51;76853.88;;;-147.22;80.71
74329;BME280;62749;51.982;5.916;2024-02-26T07:39:20;76861.94;;;-147.22;81.39
74329;BME280;62749;51.982;5.916;2024-02-26T07:41:50;76857.91;;;-147.22;81.95
74329;BME280;62749;51.982;5.916;2024-02-26T07:44:19;76859.94;;;-147.22;82.11
74329;BME280;62749;51.982;5.916;2024-02-26T07:46:49;76839.78;;;-147.22;82.09
74329;BME280;62749;51.982;5.916;2024-02-26T07:49:21;76835.75;;;-147.22;82.01
74329;BME280;62749;51.982;5.916;2024-02-26T07:51:50;76855.91;;;-147.22;82.21
74329;BME280;62749;51.982;5.916;2024-02-26T07:54:20;76843.81;;;-147.22;82.08
74329;BME280;62749;51.982;5.916;2024-02-26T07:56:49;76855.91;;;-147.22;82.29
74329;BME280;62749;51.982;5.916;2024-02-26T07:59:18;76859.94;;;-147.22;82.49
74329;BME280;62749;51.982;5.916;2024-02-26T08:01:49;76855.91;;;-147.22;82.75
74329;BME280;62749;51.982;5.916;2024-02-26T08:04:22;76851.88;;;-147.22;82.83
74329;BME280;62749;51.982;5.916;2024-02-26T08:06:52;76859.94;;;-147.22;83.29
74329;BME280;62749;51.982;5.916;2024-02-26T08:09:21;76859.94;;;-147.22;83.11
74329;BME280;62749;51.982;5.916;2024-02-26T08:11:51;76853.88;;;-147.22;83.19
74329;BME280;62749;51.982;5.916;2024-02-26T08:14:21;76878.06;;;-147.22;83.50
74329;BME280;62749;51.982;5.916;2024-02-26T08:16:50;76884.13;;;-147.22;83.32
74329;BME280;62749;51.982;5.916;2024-02-26T08:19:22;76890.16;;;-147.22;84.02
74329;BME280;62749;51.982;5.916;2024-02-26T08:21:51;76878.06;;;-147.22;84.29
74329;BME280;62749;51.982;5.916;2024-02-26T08:24:21;76892.19;;;-147.22;84.04
74329;BME280;62749;51.982;5.916;2024-02-26T08:26:50;76888.16;;;-147.22;84.16
74329;BME280;62749;51.982;5.916;2024-02-26T08:29:20;76894.19;;;-147.22;83.60
74329;BME280;62749;51.982;5.916;2024-02-26T08:31:49;76902.28;;;-147.22;83.89
74329;BME280;62749;51.982;5.916;2024-02-26T08:34:21;76900.25;;;-147.22;84.35
74329;BME280;62749;51.982;5.916;2024-02-26T08:36:51;76900.25;;;-147.22;84.22
74329;BME280;62749;51.982;5.916;2024-02-26T08:39:43;76900.25;;;-147.22;84.35
74329;BME280;62749;51.982;5.916;2024-02-26T08:42:13;76908.31;;;-147.22;84.03
74329;BME280;62749;51.982;5.916;2024-02-26T08:44:42;76896.22;;;-147.22;84.37
74329;BME280;62749;51.982;5.916;2024-02-26T08:47:12;76920.41;;;-147.22;84.28
74329;BME280;62749;51.982;5.916;2024-02-26T08:49:45;76916.38;;;-147.22;84.47
74329;BME280;62749;51.982;5.916;2024-02-26T08:52:14;76896.22;;;-147.22;84.57
74329;BME280;62749;51.982;5.916;2024-02-26T08:54:44;76904.28;;;-147.22;84.34
74329;BME280;62749;51.982;5.916;2024-02-26T08:57:13;76912.34;;;-147.22;84.31
74329;BME280;62749;51.982;5.916;2024-02-26T08:59:58;76928.47;;;-147.22;84.80
74329;BME280;62749;51.982;5.916;2024-02-26T09:02:27;76920.41;;;-147.22;85.45
74329;BME280;62749;51.982;5.916;2024-02-26T09:04:59;76924.44;;;-147.22;84.92
74329;BME280;62749;51.982;5.916;2024-02-26T09:07:29;76924.44;;;-147.22;84.92
74329;BME280;62749;51.982;5.916;2024-02-26T09:09:58;76920.41;;;-147.22;84.81
74329;BME280;62749;51.982;5.916;2024-02-26T09:12:29;76914.38;;;-147.22;84.60
74329;BME280;62749;51.982;5.916;2024-02-26T09:14:58;76916.38;;;-147.22;84.92
74329;BME280;62749;51.982;5.916;2024-02-26T09:17:28;76922.44;;;-147.22;84.93
74329;BME280;62749;51.982;5.916;2024-02-26T09:20:00;76928.47;;;-147.22;85.05
74329;BME280;62749;51.982;5.916;2024-02-26T09:22:30;76926.47;;;-147.22;84.82
74329;BME280;62749;51.982;5.916;2024-02-26T09:25:01;76928.47;;;-147.22;85.34
74329;BME280;62749;51.982;5.916;2024-02-26T09:27:30;76942.59;;;-147.22;85.20
74329;BME280;62749;51.982;5.916;2024-02-26T09:30:00;76926.47;;;-147.22;85.58
74329;BME280;62749;51.982;5.916;2024-02-26T09:32:29;76910.34;;;-147.22;85.32
74329;BME280;62749;51.982;5.916;2024-02-26T09:35:02;76916.38;;;-147.22;84.98
74329;BME280;62749;51.982;5.916;2024-02-26T09:40:37;76926.47;;;-147.22;85.29
74329;BME280;62749;51.982;5.916;2024-02-26T09:43:11;76936.53;;;-147.22;85.49
74329;BME280;62749;51.982;5.916;2024-02-26T09:45:43;76928.47;;;-147.22;85.15
74329;BME280;62749;51.982;5.916;2024-02-26T09:48:15;76932.50;;;-147.22;85.10
74329;BME280;62749;51.982;5.916;2024-02-26T09:50:49;76926.47;;;-147.22;85.29
74329;BME280;62749;51.982;5.916;2024-02-26T09:53:22;76930.50;;;-147.22;85.07
74329;BME280;62749;51.982;5.916;2024-02-26T09:55:51;76932.50;;;-147.22;85.16
74329;BME280;62749;51.982;5.916;2024-02-26T09:58:21;76930.50;;;-147.22;85.54
74329;BME280;62749;51.982;5.916;2024-02-26T10:00:55;76944.59;;;-147.22;84.86
74329;BME280;62749;51.982;5.916;2024-02-26T10:03:30;76924.44;;;-147.22;84.79
74329;BME280;62749;51.982;5.916;2024-02-26T10:06:03;76942.59;;;-147.22;85.15
74329;BME280;62749;51.982;5.916;2024-02-26T10:08:35;76928.47;;;-147.22;85.33
74329;BME280;62749;51.982;5.916;2024-02-26T10:11:07;76934.53;;;-147.22;84.96
74329;BME280;62749;51.982;5.916;2024-02-26T10:13:36;76942.59;;;-147.22;84.66
74329;BME280;62749;51.982;5.916;2024-02-26T10:16:06;76954.69;;;-147.22;84.54
74329;BME280;62749;51.982;5.916;2024-02-26T10:18:46;76938.56;;;-147.22;84.81
74329;BME280;62749;51.982;5.916;2024-02-26T10:21:20;76936.53;;;-147.22;84.53
74329;BME280;62749;51.982;5.916;2024-02-26T10:23:50;76946.63;;;-147.22;84.49
74329;BME280;62749;51.982;5.916;2024-02-26T10:26:20;76952.66;;;-147.22;84.72
74329;BME280;62749;51.982;5.916;2024-02-26T10:28:49;76958.72;;;-147.22;85.00
74329;BME280;62749;51.982;5.916;2024-02-26T10:31:19;76964.75;;;-147.22;84.10
74329;BME280;62749;51.982;5.916;2024-02-26T10:33:48;76962.75;;;-147.22;84.69
74329;BME280;62749;51.982;5.916;2024-02-26T10:36:20;76960.72;;;-147.22;84.62
74329;BME280;62749;51.982;5.916;2024-02-26T10:38:50;76970.81;;;-147.22;84.64
74329;BME280;62749;51.982;5.916;2024-02-26T10:41:19;76952.66;;;-147.22;84.41
74329;BME280;62749;51.982;5.916;2024-02-26T10:43:49;76956.69;;;-147.22;84.22
74329;BME280;62749;51.982;5.916;2024-02-26T10:46:19;76958.72;;;-147.22;84.10
74329;BME280;62749;51.982;5.916;2024-02-26T10:48:50;76974.84;;;-147.22;84.14
74329;BME280;62749;51.982;5.916;2024-02-26T10:51:27;76997.03;;;-147.22;84.12
74329;BME280;62749;51.982;5.916;2024-02-26T10:57:09;76988.97;;;-147.22;85.17
74329;BME280;62749;51.982;5.916;2024-02-26T10:59:39;77011.13;;;-147.22;84.42
74329;BME280;62749;51.982;5.916;2024-02-26T11:02:14;77013.16;;;-147.22;84.71
74329;BME280;62749;51.982;5.916;2024-02-26T11:04:44;77019.19;;;-147.22;85.11
74329;BME280;62749;51.982;5.916;2024-02-26T11:07:17;77023.22;;;-147.22;85.38
74329;BME280;62749;51.982;5.916;2024-02-26T11:09:48;77021.22;;;-147.22;85.22
74329;BME280;62749;51.982;5.916;2024-02-26T11:12:20;77027.25;;;-147.22;85.00
74329;BME280;62749;51.982;5.916;2024-02-26T11:14:50;77025.25;;;-147.22;84.88
74329;BME280;62749;51.982;5.916;2024-02-26T11:17:22;77025.25;;;-147.22;85.24
74329;BME280;62749;51.982;5.916;2024-02-26T11:19:55;77045.41;;;-147.22;84.88
74329;BME280;62749;51.982;5.916;2024-02-26T11:22:28;77041.38;;;-147.22;85.35
74329;BME280;62749;51.982;5.916;2024-02-26T11:25:07;77049.44;;;-147.22;85.31
74329;BME280;62749;51.982;5.916;2024-02-26T11:27:45;77045.41;;;-147.22;85.61
74329;BME280;62749;51.982;5.916;2024-02-26T11:30:18;77033.31;;;-147.22;85.41
74329;BME280;62749;51.982;5.916;2024-02-26T11:32:49;77043.38;;;-147.22;85.44
74329;BME280;62749;51.982;5.916;2024-02-26T11:38:26;77033.31;;;-147.22;84.68
74329;BME280;62749;51.982;5.916;2024-02-26T11:40:56;77035.31;;;-147.22;84.75
74329;BME280;62749;51.982;5.916;2024-02-26T11:43:51;77031.28;;;-147.22;84.72
74329;BME280;62749;51.982;5.916;2024-02-26T11:46:28;77033.31;;;-147.22;85.29
74329;BME280;62749;51.982;5.916;2024-02-26T11:49:03;77023.22;;;-147.22;85.01
74329;BME280;62749;51.982;5.916;2024-02-26T11:51:54;77013.16;;;-147.22;85.47
74329;BME280;62749;51.982;5.916;2024-02-26T11:54:43;77017.19;;;-147.22;84.66
74329;BME280;62749;51.982;5.916;2024-02-26T11:57:23;77009.13;;;-147.22;84.90
74329;BME280;62749;51.982;5.916;2024-02-26T12:00:11;77011.13;;;-147.22;84.51
74329;BME280;62749;51.982;5.916;2024-02-26T12:02:47;77011.13;;;-147.22;84.72
74329;BME280;62749;51.982;5.916;2024-02-26T12:05:25;77019.19;;;-147.22;84.56
74329;BME280;62749;51.982;5.916;2024-02-26T12:08:01;77011.13;;;-147.22;84.90
74329;BME280;62749;51.982;5.916;2024-02-26T12:10:37;77039.34;;;-147.22;84.53
74329;BME280;62749;51.982;5.916;2024-02-26T12:13:10;77023.22;;;-147.22;84.88
74329;BME280;62749;51.982;5.916;2024-02-26T12:15:42;77021.22;;;-147.22;84.77
74329;BME280;62749;51.982;5.916;2024-02-26T12:18:18;77031.28;;;-147.22;84.73
74329;BME280;62749;51.982;5.916;2024-02-26T12:20:58;77045.41;;;-147.22;84.87
74329;BME280;62749;51.982;5.916;2024-02-26T12:23:27;77037.34;;;-147.22;85.18
74329;BME280;62749;51.982;5.916;2024-02-26T12:26:01;77035.31;;;-147.22;85.08
74329;BME280;62749;51.982;5.916;2024-02-26T12:28:31;77037.34;;;-147.22;84.84
74329;BME280;62749;51.982;5.916;2024-02-26T12:31:01;77049.44;;;-147.22;84.61
74329;BME280;62749;51.982;5.916;2024-02-26T12:33:31;77049.44;;;-147.22;84.87
74329;BME280;62749;51.982;5.916;2024-02-26T12:36:01;77031.28;;;-147.22;85.12
74329;BME280;62749;51.982;5.916;2024-02-26T12:38:31;77043.38;;;-147.22;84.40
74329;BME280;62749;51.982;5.916;2024-02-26T12:41:06;77045.41;;;-147.22;84.85
74329;BME280;62749;51.982;5.916;2024-02-26T12:43:36;77037.34;;;-147.22;84.42
74329;BME280;62749;51.982;5.916;2024-02-26T12:46:05;77033.31;;;-147.22;84.49
74329;BME280;62749;51.982;5.916;2024-02-26T12:48:35;77037.34;;;-147.22;84.27
74329;BME280;62749;51.982;5.916;2024-02-26T12:51:04;77043.38;;;-147.22;83.99
74329;BME280;62749;51.982;5.916;2024-02-26T12:53:37;77035.31;;;-147.22;83.91
74329;BME280;62749;51.982;5.916;2024-02-26T12:56:10;77041.38;;;-147.22;83.52
74329;BME280;62749;51.982;5.916;2024-02-26T12:58:41;77033.31;;;-147.22;83.80
74329;BME280;62749;51.982;5.916;2024-02-26T13:01:15;77039.34;;;-147.22;83.64
74329;BME280;62749;51.982;5.916;2024-02-26T13:03:46;77041.38;;;-147.22;83.84
74329;BME280;62749;51.982;5.916;2024-02-26T13:06:16;77027.25;;;-147.22;84.04
74329;BME280;62749;51.982;5.916;2024-02-26T13:08:46;77039.34;;;-147.22;84.06
74329;BME280;62749;51.982;5.916;2024-02-26T13:11:18;77039.34;;;-147.22;83.67